sensor_id;sensor_type;location;lat;lon;timestamp;pressure;altitude;pressure_sealevel;temperature;humidity
14902;BME280;7542;49.078;9.194;2023-07-28T00:00:16;97869.25;;;29.93;38.78
14902;BME280;7542;49.078;9.194;2023-07-28T00:01:18;97865.44;;;29.94;38.50
14902;BME280;7542;49.078;9.194;2023-07-28T00:02:20;97867.66;;;29.92;38.84
14902;BME280;7542;49.078;9.194;2023-07-28T00:03:22;97868.00;;;29.91;38.82
14902;BME280;7542;49.078;9.194;2023-07-28T00:04:24;97876.41;;;29.89;38.49
14902;BME280;7542;49.078;9.194;2023-07-28T00:05:26;97870.69;;;29.91;39.13
14902;BME280;7542;49.078;9.194;2023-07-28T00:06:28;97863.22;;;29.88;38.97
14902;BME280;7542;49.078;9.194;2023-07-28T00:07:30;97866.72;;;29.88;39.20
14902;BME280;7542;49.078;9.194;2023-07-28T00:08:35;97879.44;;;29.88;38.78
14902;BME280;7542;49.078;9.194;2023-07-28T00:09:37;97874.34;;;29.86;38.99
14902;BME280;7542;49.078;9.194;2023-07-28T00:10:42;97863.53;;;29.86;38.79
14902;BME280;7542;49.078;9.194;2023-07-28T00:11:44;97867.63;;;29.84;39.15
14902;BME280;7542;49.078;9.194;2023-07-28T00:12:46;97862.22;;;29.84;38.99
14902;BME280;7542;49.078;9.194;2023-07-28T00:13:48;97866.38;;;29.81;39.28
14902;BME280;7542;49.078;9.194;2023-07-28T00:14:50;97867.94;;;29.82;39.02
14902;BME280;7542;49.078;9.194;2023-07-28T00:15:52;97872.56;;;29.82;38.99
14902;BME280;7542;49.078;9.194;2023-07-28T00:16:57;97867.94;;;29.82;39.15
14902;BME280;7542;49.078;9.194;2023-07-28T00:17:59;97864.78;;;29.80;39.19
14902;BME280;7542;49.078;9.194;2023-07-28T00:19:03;97854.59;;;29.77;38.74
14902;BME280;7542;49.078;9.194;2023-07-28T00:20:06;97861.59;;;29.78;38.95
14902;BME280;7542;49.078;9.194;2023-07-28T00:21:09;97853.47;;;29.78;38.92
14902;BME280;7542;49.078;9.194;2023-07-28T00:22:11;97861.91;;;29.77;39.15
14902;BME280;7542;49.078;9.194;2023-07-28T00:23:14;97858.72;;;29.75;38.69
14902;BME280;7542;49.078;9.194;2023-07-28T00:24:17;97862.22;;;29.75;39.30
14902;BME280;7542;49.078;9.194;2023-07-28T00:25:19;97852.81;;;29.72;38.75
14902;BME280;7542;49.078;9.194;2023-07-28T00:26:22;97852.03;;;29.72;38.91
14902;BME280;7542;49.078;9.194;2023-07-28T00:27:24;97857.41;;;29.72;38.96
14902;BME280;7542;49.078;9.194;2023-07-28T00:28:26;97853.94;;;29.71;39.08
14902;BME280;7542;49.078;9.194;2023-07-28T00:29:28;97850.44;;;29.71;39.32
14902;BME280;7542;49.078;9.194;2023-07-28T00:30:30;97852.34;;;29.70;38.77
14902;BME280;7542;49.078;9.194;2023-07-28T00:31:33;97848.84;;;29.70;38.69
14902;BME280;7542;49.078;9.194;2023-07-28T00:32:35;97851.06;;;29.68;38.65
14902;BME280;7542;49.078;9.194;2023-07-28T00:33:37;97851.06;;;29.68;39.09
14902;BME280;7542;49.078;9.194;2023-07-28T00:34:39;97854.06;;;29.66;39.26
14902;BME280;7542;49.078;9.194;2023-07-28T00:35:41;97859.47;;;29.66;39.08
14902;BME280;7542;49.078;9.194;2023-07-28T00:36:43;97856.78;;;29.66;39.01
14902;BME280;7542;49.078;9.194;2023-07-28T00:37:45;97846.28;;;29.65;39.31
14902;BME280;7542;49.078;9.194;2023-07-28T00:38:47;97853.59;;;29.64;38.99
14902;BME280;7542;49.078;9.194;2023-07-28T00:39:49;97853.88;;;29.63;39.34
14902;BME280;7542;49.078;9.194;2023-07-28T00:40:51;97848.47;;;29.63;39.47
14902;BME280;7542;49.078;9.194;2023-07-28T00:41:53;97843.38;;;29.61;38.92
14902;BME280;7542;49.078;9.194;2023-07-28T00:42:55;97854.19;;;29.61;39.16
14902;BME280;7542;49.078;9.194;2023-07-28T00:43:57;97849.91;;;29.60;39.13
14902;BME280;7542;49.078;9.194;2023-07-28T00:44:59;97855.31;;;29.60;39.42
14902;BME280;7542;49.078;9.194;2023-07-28T00:46:01;97861.81;;;29.59;38.85
14902;BME280;7542;49.078;9.194;2023-07-28T00:47:04;97855.31;;;29.60;39.46
14902;BME280;7542;49.078;9.194;2023-07-28T00:48:12;97853.09;;;29.62;38.75
14902;BME280;7542;49.078;9.194;2023-07-28T00:49:14;97844.81;;;29.59;38.75
14902;BME280;7542;49.078;9.194;2023-07-28T00:50:17;97842.91;;;29.59;39.11
14902;BME280;7542;49.078;9.194;2023-07-28T00:51:19;97839.72;;;29.57;38.83
14902;BME280;7542;49.078;9.194;2023-07-28T00:52:21;97843.53;;;29.56;38.90
14902;BME280;7542;49.078;9.194;2023-07-28T00:53:24;97840.03;;;29.56;38.89
14902;BME280;7542;49.078;9.194;2023-07-28T00:54:26;97835.44;;;29.56;39.40
14902;BME280;7542;49.078;9.194;2023-07-28T00:55:28;97841.97;;;29.55;39.02
14902;BME280;7542;49.078;9.194;2023-07-28T00:56:30;97837.66;;;29.54;39.18
14902;BME280;7542;49.078;9.194;2023-07-28T00:57:33;97831.16;;;29.55;39.37
14902;BME280;7542;49.078;9.194;2023-07-28T00:58:35;97834.97;;;29.54;39.18
14902;BME280;7542;49.078;9.194;2023-07-28T00:59:37;97833.38;;;29.53;39.10
14902;BME280;7542;49.078;9.194;2023-07-28T01:00:39;97834.44;;;29.52;39.25
14902;BME280;7542;49.078;9.194;2023-07-28T01:01:41;97834.75;;;29.51;39.46
14902;BME280;7542;49.078;9.194;2023-07-28T01:02:43;97842.56;;;29.52;39.04
14902;BME280;7542;49.078;9.194;2023-07-28T01:03:45;97839.06;;;29.52;38.86
14902;BME280;7542;49.078;9.194;2023-07-28T01:04:48;97840.97;;;29.51;38.78
14902;BME280;7542;49.078;9.194;2023-07-28T01:08:06;97835.28;;;29.61;38.52
14902;BME280;7542;49.078;9.194;2023-07-28T01:09:19;97841.63;;;29.57;38.79
14902;BME280;7542;49.078;9.194;2023-07-28T01:10:31;97838.47;;;29.55;39.25
14902;BME280;7542;49.078;9.194;2023-07-28T01:11:34;97837.78;;;29.49;39.06
14902;BME280;7542;49.078;9.194;2023-07-28T01:12:36;97840.78;;;29.48;39.19
14902;BME280;7542;49.078;9.194;2023-07-28T01:13:38;97838.38;;;29.46;38.89
14902;BME280;7542;49.078;9.194;2023-07-28T01:14:39;97840.59;;;29.44;39.32
14902;BME280;7542;49.078;9.194;2023-07-28T01:15:41;97843.31;;;29.44;39.05
14902;BME280;7542;49.078;9.194;2023-07-28T01:16:43;97843.63;;;29.42;39.06
14902;BME280;7542;49.078;9.194;2023-07-28T01:17:46;97852.53;;;29.43;39.26
14902;BME280;7542;49.078;9.194;2023-07-28T01:18:48;97843.63;;;29.42;38.83
14902;BME280;7542;49.078;9.194;2023-07-28T01:19:51;97847.41;;;29.41;39.07
14902;BME280;7542;49.078;9.194;2023-07-28T01:20:57;97844.41;;;29.43;38.93
14902;BME280;7542;49.078;9.194;2023-07-28T01:22:11;97841.09;;;29.46;38.68
14902;BME280;7542;49.078;9.194;2023-07-28T01:23:55;97837.03;;;29.57;38.60
14902;BME280;7542;49.078;9.194;2023-07-28T01:26:34;97833.78;;;29.47;38.61
14902;BME280;7542;49.078;9.194;2023-07-28T01:27:37;97839.63;;;29.40;39.26
14902;BME280;7542;49.078;9.194;2023-07-28T01:28:41;97850.41;;;29.40;39.26
14902;BME280;7542;49.078;9.194;2023-07-28T01:29:45;97842.63;;;29.38;38.93
14902;BME280;7542;49.078;9.194;2023-07-28T01:30:48;97848.34;;;29.37;39.02
14902;BME280;7542;49.078;9.194;2023-07-28T01:31:51;97845.16;;;29.35;39.08
14902;BME280;7542;49.078;9.194;2023-07-28T01:32:57;97842.63;;;29.38;38.89
14902;BME280;7542;49.078;9.194;2023-07-28T01:33:59;97844.38;;;29.34;39.08
14902;BME280;7542;49.078;9.194;2023-07-28T01:35:03;97851.34;;;29.35;39.40
14902;BME280;7542;49.078;9.194;2023-07-28T01:36:05;97852.78;;;29.33;38.97
14902;BME280;7542;49.078;9.194;2023-07-28T01:37:07;97849.28;;;29.32;39.46
14902;BME280;7542;49.078;9.194;2023-07-28T01:38:09;97846.59;;;29.32;39.50
14902;BME280;7542;49.078;9.194;2023-07-28T01:39:11;97844.69;;;29.33;39.34
14902;BME280;7542;49.078;9.194;2023-07-28T01:40:13;97843.09;;;29.32;38.94
14902;BME280;7542;49.078;9.194;2023-07-28T01:41:15;97846.06;;;29.30;38.95
14902;BME280;7542;49.078;9.194;2023-07-28T01:42:17;97843.38;;;29.30;39.00
14902;BME280;7542;49.078;9.194;2023-07-28T01:43:19;97850.69;;;29.30;39.42
14902;BME280;7542;49.078;9.194;2023-07-28T01:44:21;97852.59;;;29.29;39.20
14902;BME280;7542;49.078;9.194;2023-07-28T01:45:23;97845.28;;;29.30;39.43
14902;BME280;7542;49.078;9.194;2023-07-28T01:46:25;97843.69;;;29.29;39.02
14902;BME280;7542;49.078;9.194;2023-07-28T01:47:27;97839.41;;;29.28;39.16
14902;BME280;7542;49.078;9.194;2023-07-28T01:48:29;97841.78;;;29.29;39.36
14902;BME280;7542;49.078;9.194;2023-07-28T01:49:31;97842.88;;;29.28;38.91
14902;BME280;7542;49.078;9.194;2023-07-28T01:50:33;97841.31;;;29.27;39.28
14902;BME280;7542;49.078;9.194;2023-07-28T01:51:35;97851.00;;;29.28;39.36
14902;BME280;7542;49.078;9.194;2023-07-28T01:52:37;97847.50;;;29.28;38.98
14902;BME280;7542;49.078;9.194;2023-07-28T01:53:38;97845.91;;;29.27;39.29
14902;BME280;7542;49.078;9.194;2023-07-28T01:54:40;97849.41;;;29.27;39.09
14902;BME280;7542;49.078;9.194;2023-07-28T01:55:42;97847.81;;;29.26;39.11
14902;BME280;7542;49.078;9.194;2023-07-28T01:56:44;97850.50;;;29.26;39.38
14902;BME280;7542;49.078;9.194;2023-07-28T01:57:59;97852.78;;;29.33;39.00
14902;BME280;7542;49.078;9.194;2023-07-28T01:59:02;97845.91;;;29.27;39.02
14902;BME280;7542;49.078;9.194;2023-07-28T02:00:07;97843.53;;;29.25;39.37
14902;BME280;7542;49.078;9.194;2023-07-28T02:01:12;97844.31;;;29.26;39.11
14902;BME280;7542;49.078;9.194;2023-07-28T02:02:14;97848.13;;;29.25;39.22
14902;BME280;7542;49.078;9.194;2023-07-28T02:03:16;97847.31;;;29.24;39.42
14902;BME280;7542;49.078;9.194;2023-07-28T02:04:18;97851.94;;;29.24;39.49
14902;BME280;7542;49.078;9.194;2023-07-28T02:05:21;97851.13;;;29.23;39.12
14902;BME280;7542;49.078;9.194;2023-07-28T02:06:23;97844.16;;;29.22;38.89
14902;BME280;7542;49.078;9.194;2023-07-28T02:07:25;97841.75;;;29.21;39.46
14902;BME280;7542;49.078;9.194;2023-07-28T02:08:27;97839.84;;;29.21;39.22
14902;BME280;7542;49.078;9.194;2023-07-28T02:09:29;97847.16;;;29.21;39.05
14902;BME280;7542;49.078;9.194;2023-07-28T02:10:31;97840.97;;;29.20;39.43
14902;BME280;7542;49.078;9.194;2023-07-28T02:11:33;97839.06;;;29.21;39.46
14902;BME280;7542;49.078;9.194;2023-07-28T02:12:36;97835.56;;;29.20;39.24
14902;BME280;7542;49.078;9.194;2023-07-28T02:13:38;97838.53;;;29.19;38.75
14902;BME280;7542;49.078;9.194;2023-07-28T02:14:40;97844.75;;;29.19;39.50
14902;BME280;7542;49.078;9.194;2023-07-28T02:15:42;97840.13;;;29.20;39.20
14902;BME280;7542;49.078;9.194;2023-07-28T02:16:44;97843.94;;;29.19;39.17
14902;BME280;7542;49.078;9.194;2023-07-28T02:17:46;97838.53;;;29.19;39.04
14902;BME280;7542;49.078;9.194;2023-07-28T02:18:48;97842.03;;;29.19;38.88
14902;BME280;7542;49.078;9.194;2023-07-28T02:19:50;97845.06;;;29.17;38.97
14902;BME280;7542;49.078;9.194;2023-07-28T02:20:52;97838.53;;;29.19;39.36
14902;BME280;7542;49.078;9.194;2023-07-28T02:21:54;97829.66;;;29.18;38.91
14902;BME280;7542;49.078;9.194;2023-07-28T02:22:56;97833.16;;;29.19;38.94
14902;BME280;7542;49.078;9.194;2023-07-28T02:23:58;97828.06;;;29.17;39.10
14902;BME280;7542;49.078;9.194;2023-07-28T02:25:00;97824.56;;;29.16;39.09
14902;BME280;7542;49.078;9.194;2023-07-28T02:26:04;97831.56;;;29.17;39.31
14902;BME280;7542;49.078;9.194;2023-07-28T02:27:06;97831.06;;;29.15;39.21
14902;BME280;7542;49.078;9.194;2023-07-28T02:28:10;97829.97;;;29.16;38.99
14902;BME280;7542;49.078;9.194;2023-07-28T02:29:13;97831.38;;;29.14;39.09
14902;BME280;7542;49.078;9.194;2023-07-28T02:30:15;97837.59;;;29.14;38.90
14902;BME280;7542;49.078;9.194;2023-07-28T02:31:17;97834.88;;;29.14;38.82
14902;BME280;7542;49.078;9.194;2023-07-28T02:32:19;97826.78;;;29.14;38.99
14902;BME280;7542;49.078;9.194;2023-07-28T02:33:22;97831.06;;;29.15;38.89
14902;BME280;7542;49.078;9.194;2023-07-28T02:34:24;97832.19;;;29.14;39.46
14902;BME280;7542;49.078;9.194;2023-07-28T02:35:26;97830.59;;;29.13;39.09
14902;BME280;7542;49.078;9.194;2023-07-28T02:36:28;97826.31;;;29.12;39.12
14902;BME280;7542;49.078;9.194;2023-07-28T02:37:30;97834.09;;;29.14;38.98
14902;BME280;7542;49.078;9.194;2023-07-28T02:38:32;97837.59;;;29.14;39.27
14902;BME280;7542;49.078;9.194;2023-07-28T02:39:34;97836.78;;;29.14;38.96
14902;BME280;7542;49.078;9.194;2023-07-28T02:40:36;97840.59;;;29.13;39.37
14902;BME280;7542;49.078;9.194;2023-07-28T02:41:38;97834.09;;;29.14;38.74
14902;BME280;7542;49.078;9.194;2023-07-28T02:42:40;97840.59;;;29.13;39.09
14902;BME280;7542;49.078;9.194;2023-07-28T02:43:42;97841.69;;;29.12;39.14
14902;BME280;7542;49.078;9.194;2023-07-28T02:44:44;97835.19;;;29.13;39.35
14902;BME280;7542;49.078;9.194;2023-07-28T02:45:57;97843.16;;;29.18;39.22
14902;BME280;7542;49.078;9.194;2023-07-28T02:46:59;97845.19;;;29.12;39.33
14902;BME280;7542;49.078;9.194;2023-07-28T02:48:01;97843.91;;;29.10;39.23
14902;BME280;7542;49.078;9.194;2023-07-28T02:49:03;97840.41;;;29.09;39.23
14902;BME280;7542;49.078;9.194;2023-07-28T02:50:06;97848.53;;;29.09;39.22
14902;BME280;7542;49.078;9.194;2023-07-28T02:51:08;97854.72;;;29.10;39.14
14902;BME280;7542;49.078;9.194;2023-07-28T02:52:10;97854.19;;;29.08;39.38
14902;BME280;7542;49.078;9.194;2023-07-28T02:53:13;97846.91;;;29.08;38.77
14902;BME280;7542;49.078;9.194;2023-07-28T02:54:14;97866.59;;;29.09;39.32
14902;BME280;7542;49.078;9.194;2023-07-28T02:55:16;97861.50;;;29.07;39.02
14902;BME280;7542;49.078;9.194;2023-07-28T02:56:18;97868.50;;;29.08;39.19
14902;BME280;7542;49.078;9.194;2023-07-28T02:57:22;97857.41;;;29.10;39.32
14902;BME280;7542;49.078;9.194;2023-07-28T02:58:24;97865.00;;;29.08;39.34
14902;BME280;7542;49.078;9.194;2023-07-28T02:59:26;97859.13;;;29.06;38.80
14902;BME280;7542;49.078;9.194;2023-07-28T03:00:28;97869.59;;;29.07;38.83
14902;BME280;7542;49.078;9.194;2023-07-28T03:01:30;97866.91;;;29.07;39.15
14902;BME280;7542;49.078;9.194;2023-07-28T03:02:37;97869.59;;;29.07;39.31
14902;BME280;7542;49.078;9.194;2023-07-28T03:03:39;97874.22;;;29.07;38.98
14902;BME280;7542;49.078;9.194;2023-07-28T03:04:40;97871.81;;;29.05;39.20
14902;BME280;7542;49.078;9.194;2023-07-28T03:05:43;97876.41;;;29.05;39.11
14902;BME280;7542;49.078;9.194;2023-07-28T03:06:45;97872.94;;;29.04;39.33
14902;BME280;7542;49.078;9.194;2023-07-28T03:07:47;97875.94;;;29.03;39.30
14902;BME280;7542;49.078;9.194;2023-07-28T03:08:50;97876.72;;;29.03;39.37
14902;BME280;7542;49.078;9.194;2023-07-28T03:09:52;97881.03;;;29.04;39.14
14902;BME280;7542;49.078;9.194;2023-07-28T03:11:00;97875.81;;;29.08;38.72
14902;BME280;7542;49.078;9.194;2023-07-28T03:12:04;97877.22;;;29.05;38.94
14902;BME280;7542;49.078;9.194;2023-07-28T03:13:07;97881.03;;;29.04;39.26
14902;BME280;7542;49.078;9.194;2023-07-28T03:14:10;97881.03;;;29.04;38.89
14902;BME280;7542;49.078;9.194;2023-07-28T03:15:13;97885.63;;;29.04;39.34
14902;BME280;7542;49.078;9.194;2023-07-28T03:16:15;97882.44;;;29.02;39.37
14902;BME280;7542;49.078;9.194;2023-07-28T03:17:16;97880.53;;;29.02;39.11
14902;BME280;7542;49.078;9.194;2023-07-28T03:18:18;97885.94;;;29.02;38.93
14902;BME280;7542;49.078;9.194;2023-07-28T03:19:20;97884.34;;;29.01;39.16
14902;BME280;7542;49.078;9.194;2023-07-28T03:20:22;97881.66;;;29.01;39.29
14902;BME280;7542;49.078;9.194;2023-07-28T03:21:24;97887.03;;;29.01;39.22
14902;BME280;7542;49.078;9.194;2023-07-28T03:22:26;97881.97;;;29.00;39.33
14902;BME280;7542;49.078;9.194;2023-07-28T03:23:28;97887.03;;;29.01;39.00
14902;BME280;7542;49.078;9.194;2023-07-28T03:24:30;97888.47;;;28.99;39.34
14902;BME280;7542;49.078;9.194;2023-07-28T03:25:32;97890.84;;;29.00;39.26
14902;BME280;7542;49.078;9.194;2023-07-28T03:26:34;97895.75;;;28.98;39.34
14902;BME280;7542;49.078;9.194;2023-07-28T03:27:37;97887.66;;;28.98;39.01
14902;BME280;7542;49.078;9.194;2023-07-28T03:28:39;97897.34;;;28.99;39.21
14902;BME280;7542;49.078;9.194;2023-07-28T03:29:41;97896.56;;;28.99;39.37
14902;BME280;7542;49.078;9.194;2023-07-28T03:30:43;97901.16;;;28.98;39.32
14902;BME280;7542;49.078;9.194;2023-07-28T03:31:45;97903.03;;;28.98;38.84
14902;BME280;7542;49.078;9.194;2023-07-28T03:32:48;97900.34;;;28.98;39.24
14902;BME280;7542;49.078;9.194;2023-07-28T03:33:50;97900.34;;;28.98;38.94
14902;BME280;7542;49.078;9.194;2023-07-28T03:34:52;97910.34;;;28.97;39.32
14902;BME280;7542;49.078;9.194;2023-07-28T03:35:54;97907.63;;;28.97;38.93
14902;BME280;7542;49.078;9.194;2023-07-28T03:36:56;97907.63;;;28.97;38.85
14902;BME280;7542;49.078;9.194;2023-07-28T03:37:58;97899.84;;;28.96;39.34
14902;BME280;7542;49.078;9.194;2023-07-28T03:39:00;97898.75;;;28.97;39.06
14902;BME280;7542;49.078;9.194;2023-07-28T03:40:02;97901.75;;;28.95;39.05
14902;BME280;7542;49.078;9.194;2023-07-28T03:41:04;97902.56;;;28.96;38.80
14902;BME280;7542;49.078;9.194;2023-07-28T03:42:07;97894.28;;;28.92;39.25
14902;BME280;7542;49.078;9.194;2023-07-28T03:43:09;97899.06;;;28.95;39.25
14902;BME280;7542;49.078;9.194;2023-07-28T03:44:11;97898.25;;;28.95;39.26
14902;BME280;7542;49.078;9.194;2023-07-28T03:45:13;97898.25;;;28.95;38.98
14902;BME280;7542;49.078;9.194;2023-07-28T03:46:15;97897.47;;;28.94;39.08
14902;BME280;7542;49.078;9.194;2023-07-28T03:47:17;97902.06;;;28.94;39.05
14902;BME280;7542;49.078;9.194;2023-07-28T03:48:19;97903.16;;;28.93;39.26
14902;BME280;7542;49.078;9.194;2023-07-28T03:49:21;97900.47;;;28.93;39.01
14902;BME280;7542;49.078;9.194;2023-07-28T03:50:23;97899.69;;;28.92;38.71
14902;BME280;7542;49.078;9.194;2023-07-28T03:51:28;97908.25;;;28.94;39.29
14902;BME280;7542;49.078;9.194;2023-07-28T03:52:30;97903.16;;;28.93;39.01
14902;BME280;7542;49.078;9.194;2023-07-28T03:53:32;97896.19;;;28.92;39.16
14902;BME280;7542;49.078;9.194;2023-07-28T03:54:36;97896.97;;;28.92;39.15
14902;BME280;7542;49.078;9.194;2023-07-28T03:55:38;97895.06;;;28.93;38.96
14902;BME280;7542;49.078;9.194;2023-07-28T03:56:40;97899.97;;;28.91;38.77
14902;BME280;7542;49.078;9.194;2023-07-28T03:57:43;97902.69;;;28.91;39.42
14902;BME280;7542;49.078;9.194;2023-07-28T03:58:45;97895.69;;;28.90;38.79
14902;BME280;7542;49.078;9.194;2023-07-28T03:59:46;97901.88;;;28.90;38.83
14902;BME280;7542;49.078;9.194;2023-07-28T04:00:48;97897.28;;;28.91;38.79
14902;BME280;7542;49.078;9.194;2023-07-28T04:01:51;97899.19;;;28.90;38.87
14902;BME280;7542;49.078;9.194;2023-07-28T04:02:54;97894.59;;;28.91;38.77
14902;BME280;7542;49.078;9.194;2023-07-28T04:03:56;97896.50;;;28.90;38.96
14902;BME280;7542;49.078;9.194;2023-07-28T04:04:58;97894.91;;;28.89;39.06
14902;BME280;7542;49.078;9.194;2023-07-28T04:06:00;97894.59;;;28.91;39.18
14902;BME280;7542;49.078;9.194;2023-07-28T04:07:02;97905.69;;;28.89;38.87
14902;BME280;7542;49.078;9.194;2023-07-28T04:08:04;97898.69;;;28.88;39.10
14902;BME280;7542;49.078;9.194;2023-07-28T04:09:06;97905.69;;;28.89;39.15
14902;BME280;7542;49.078;9.194;2023-07-28T04:10:08;97903.28;;;28.87;39.20
14902;BME280;7542;49.078;9.194;2023-07-28T04:11:11;97908.66;;;28.87;39.23
14902;BME280;7542;49.078;9.194;2023-07-28T04:12:13;97916.50;;;28.89;38.96
14902;BME280;7542;49.078;9.194;2023-07-28T04:13:15;97905.16;;;28.87;39.28
14902;BME280;7542;49.078;9.194;2023-07-28T04:14:17;97906.78;;;28.88;39.09
14902;BME280;7542;49.078;9.194;2023-07-28T04:15:18;97912.44;;;28.86;39.04
14902;BME280;7542;49.078;9.194;2023-07-28T04:16:20;97904.34;;;28.86;38.93
14902;BME280;7542;49.078;9.194;2023-07-28T04:17:22;97905.97;;;28.87;38.79
14902;BME280;7542;49.078;9.194;2023-07-28T04:18:24;97902.75;;;28.85;38.99
14902;BME280;7542;49.078;9.194;2023-07-28T04:19:26;97906.25;;;28.86;38.92
14902;BME280;7542;49.078;9.194;2023-07-28T04:20:30;97907.84;;;28.87;39.03
14902;BME280;7542;49.078;9.194;2023-07-28T04:21:32;97904.34;;;28.86;39.19
14902;BME280;7542;49.078;9.194;2023-07-28T04:22:35;97896.56;;;28.85;39.24
14902;BME280;7542;49.078;9.194;2023-07-28T04:23:37;97897.03;;;28.87;39.11
14902;BME280;7542;49.078;9.194;2023-07-28T04:24:39;97897.34;;;28.85;39.01
14902;BME280;7542;49.078;9.194;2023-07-28T04:25:41;97900.06;;;28.85;39.19
14902;BME280;7542;49.078;9.194;2023-07-28T04:26:43;97896.88;;;28.83;38.88
14902;BME280;7542;49.078;9.194;2023-07-28T04:27:44;97893.88;;;28.85;38.92
14902;BME280;7542;49.078;9.194;2023-07-28T04:28:46;97891.16;;;28.85;39.23
14902;BME280;7542;49.078;9.194;2023-07-28T04:29:48;97895.44;;;28.86;38.74
14902;BME280;7542;49.078;9.194;2023-07-28T04:30:50;97895.75;;;28.84;39.19
14902;BME280;7542;49.078;9.194;2023-07-28T04:31:53;97895.28;;;28.82;39.15
14902;BME280;7542;49.078;9.194;2023-07-28T04:32:55;97893.38;;;28.83;38.84
14902;BME280;7542;49.078;9.194;2023-07-28T04:33:56;97896.88;;;28.83;39.09
14902;BME280;7542;49.078;9.194;2023-07-28T04:34:59;97892.28;;;28.84;38.69
14902;BME280;7542;49.078;9.194;2023-07-28T04:36:04;97892.28;;;28.84;38.85
14902;BME280;7542;49.078;9.194;2023-07-28T04:37:06;97899.56;;;28.83;39.00
14902;BME280;7542;49.078;9.194;2023-07-28T04:38:08;97907.66;;;28.83;38.85
14902;BME280;7542;49.078;9.194;2023-07-28T04:39:10;97906.06;;;28.82;38.63
14902;BME280;7542;49.078;9.194;2023-07-28T04:40:12;97899.88;;;28.82;39.01
14902;BME280;7542;49.078;9.194;2023-07-28T04:41:18;97900.69;;;28.82;39.17
14902;BME280;7542;49.078;9.194;2023-07-28T04:42:19;97901.47;;;28.83;38.91
14902;BME280;7542;49.078;9.194;2023-07-28T04:43:21;97896.38;;;28.81;39.02
14902;BME280;7542;49.078;9.194;2023-07-28T04:44:24;97902.88;;;28.80;39.18
14902;BME280;7542;49.078;9.194;2023-07-28T04:45:26;97900.19;;;28.80;39.16
14902;BME280;7542;49.078;9.194;2023-07-28T04:46:28;97899.38;;;28.80;39.13
14902;BME280;7542;49.078;9.194;2023-07-28T04:47:30;97909.06;;;28.81;38.66
14902;BME280;7542;49.078;9.194;2023-07-28T04:48:32;97901.78;;;28.81;38.93
14902;BME280;7542;49.078;9.194;2023-07-28T04:49:34;97906.38;;;28.81;39.00
14902;BME280;7542;49.078;9.194;2023-07-28T04:50:35;97891.28;;;28.80;38.72
14902;BME280;7542;49.078;9.194;2023-07-28T04:51:38;97892.09;;;28.80;38.77
14902;BME280;7542;49.078;9.194;2023-07-28T04:52:40;97896.69;;;28.80;38.87
14902;BME280;7542;49.078;9.194;2023-07-28T04:53:42;97895.91;;;28.79;39.22
14902;BME280;7542;49.078;9.194;2023-07-28T04:54:44;97891.59;;;28.78;38.98
14902;BME280;7542;49.078;9.194;2023-07-28T04:55:46;97891.59;;;28.78;39.36
14902;BME280;7542;49.078;9.194;2023-07-28T04:56:47;97895.41;;;28.77;38.92
14902;BME280;7542;49.078;9.194;2023-07-28T04:57:51;97907.78;;;28.78;39.05
14902;BME280;7542;49.078;9.194;2023-07-28T04:58:53;97908.59;;;28.79;38.80
14902;BME280;7542;49.078;9.194;2023-07-28T04:59:55;97904.31;;;28.78;38.95
14902;BME280;7542;49.078;9.194;2023-07-28T05:00:57;97915.09;;;28.78;39.11
14902;BME280;7542;49.078;9.194;2023-07-28T05:01:59;97914.28;;;28.77;39.25
14902;BME280;7542;49.078;9.194;2023-07-28T05:03:01;97908.91;;;28.77;39.18
14902;BME280;7542;49.078;9.194;2023-07-28T05:04:03;97912.19;;;28.74;39.20
14902;BME280;7542;49.078;9.194;2023-07-28T05:05:05;97918.06;;;28.76;38.84
14902;BME280;7542;49.078;9.194;2023-07-28T05:06:07;97907.59;;;28.75;39.09
14902;BME280;7542;49.078;9.194;2023-07-28T05:07:10;97913.78;;;28.75;39.18
14902;BME280;7542;49.078;9.194;2023-07-28T05:08:12;97905.69;;;28.75;38.88
14902;BME280;7542;49.078;9.194;2023-07-28T05:09:14;97906.19;;;28.77;38.75
14902;BME280;7542;49.078;9.194;2023-07-28T05:10:16;97904.88;;;28.75;38.66
14902;BME280;7542;49.078;9.194;2023-07-28T05:11:18;97902.97;;;28.75;38.98
14902;BME280;7542;49.078;9.194;2023-07-28T05:12:20;97901.09;;;28.76;39.01
14902;BME280;7542;49.078;9.194;2023-07-28T05:13:22;97900.00;;;28.77;39.02
14902;BME280;7542;49.078;9.194;2023-07-28T05:14:24;97902.97;;;28.75;38.88
14902;BME280;7542;49.078;9.194;2023-07-28T05:15:26;97905.69;;;28.75;39.01
14902;BME280;7542;49.078;9.194;2023-07-28T05:16:28;97907.91;;;28.73;38.89
14902;BME280;7542;49.078;9.194;2023-07-28T05:17:31;97908.69;;;28.74;38.77
14902;BME280;7542;49.078;9.194;2023-07-28T05:18:33;97914.88;;;28.74;38.98
14902;BME280;7542;49.078;9.194;2023-07-28T05:19:35;97909.00;;;28.72;39.14
14902;BME280;7542;49.078;9.194;2023-07-28T05:20:37;97917.59;;;28.74;38.74
14902;BME280;7542;49.078;9.194;2023-07-28T05:21:39;97918.69;;;28.73;39.13
14902;BME280;7542;49.078;9.194;2023-07-28T05:22:41;97914.88;;;28.74;38.76
14902;BME280;7542;49.078;9.194;2023-07-28T05:23:43;97904.72;;;28.71;39.18
14902;BME280;7542;49.078;9.194;2023-07-28T05:24:46;97912.50;;;28.73;38.79
14902;BME280;7542;49.078;9.194;2023-07-28T05:25:48;97916.78;;;28.74;38.98
14902;BME280;7542;49.078;9.194;2023-07-28T05:26:50;97907.91;;;28.73;38.77
14902;BME280;7542;49.078;9.194;2023-07-28T05:27:52;97920.59;;;28.73;39.09
14902;BME280;7542;49.078;9.194;2023-07-28T05:28:54;97917.88;;;28.73;38.94
14902;BME280;7542;49.078;9.194;2023-07-28T05:29:56;97920.59;;;28.73;39.19
14902;BME280;7542;49.078;9.194;2023-07-28T05:31:04;97921.88;;;28.75;38.91
14902;BME280;7542;49.078;9.194;2023-07-28T05:32:07;97922.19;;;28.74;39.14
14902;BME280;7542;49.078;9.194;2023-07-28T05:33:09;97927.56;;;28.74;38.72
14902;BME280;7542;49.078;9.194;2023-07-28T05:34:11;97924.38;;;28.72;38.83
14902;BME280;7542;49.078;9.194;2023-07-28T05:35:15;97930.59;;;28.72;39.25
14902;BME280;7542;49.078;9.194;2023-07-28T05:36:18;97927.09;;;28.72;38.63
14902;BME280;7542;49.078;9.194;2023-07-28T05:37:19;97930.91;;;28.71;38.93
14902;BME280;7542;49.078;9.194;2023-07-28T05:38:21;97931.69;;;28.71;38.85
14902;BME280;7542;49.078;9.194;2023-07-28T05:39:23;97932.78;;;28.70;38.85